Aberdeen, NJ

1:20 PM EDT on March 27, 2015 (GMT -0400)
laurence harbor | | Change Station
CLOSE
Current Station
Personal Weather Station
Location: Old Bridge Township, NJ
Elevation: 30 ft
Nearby Weather Stations

Elev 30 ft 40.46 °N, 74.24 °W | Updated 50 seconds ago

Overcast
Overcast
43.9 °F
Feels Like 41 °F
N
4.7
Wind Variable Wind from NNW

Today
High -- | Low -- °F
--% Chance of Precip.
Yesterday
High -- | Low -- °F
Precip. -- in
6:49 AM 7:16 PM
First Quarter, 54% visible
Pressure 29.76 in
Visibility 10.0 miles
Clouds Overcast 3200 ft
Windchill 41 °F
Dew Point 38 °F
Humidity 79%
Rainfall 0.36 in
Snow Depth Not available.
UV 2 out of 12
Pollen 5.90 out of 12
Air Quality Not available.
Flu Activity Not available.
METAR KLDJ 271715Z AUTO 00000KT 10SM OVC032 10/03 A2976 RMK AO2 T00960031

More Conditions Fewer Conditions

Pressure 29.76 in
Visibility 10.0 miles
Clouds Overcast 3200 ft
Windchill 41 °F
Dew Point 38 °F
Humidity 79%
Rainfall 0.36 in
Snow Depth Not available.
UV 2 out of 12
Pollen 5.90 out of 12
Air Quality Not available.
Flu Activity Not available.
METAR KLDJ 271715Z AUTO 00000KT 10SM OVC032 10/03 A2976 RMK AO2 T00960031

More Conditions Fewer Conditions

10-Day Weather Forecast

Almanac

Astronomy

Mar. 27, 2015 Rise Set
Actual Time
Civil Twilight
Nautical Twilight
Astronomical Twilight
Moon
Length of Visible Light
Length of Day
Tomorrow will be .
, % of the Moon is Illuminated

Today's Extremes

State Highs State Lows

Community

WunderPhotos

Upload Photos

1,808,769 photos uploaded!

WunderBlogs® & News

Nearby

Air Quality

  Air Quality AQ Index Pollutant
Not available.

Snow Depth

Station Depth Elevation

Earthquake Activity

City Distance Mag. Time & Date
Minimum magnitude displayed is 2.5.

Coastal Water Temperatures

Place Temperature

Stations

Nearby Weather Stations

Station Location Temp. Windchill Dew Point Humidity Wind Precip. Elev Updated Type